sensor_id;sensor_type;location;lat;lon;timestamp;pressure;altitude;pressure_sealevel;temperature;humidity
33795;BME280;51430;52.242;21.118;2023-08-30T00:00:09;99121.96;;;20.90;100.00
33795;BME280;51430;52.242;21.118;2023-08-30T00:02:57;99115.27;;;20.86;100.00
33795;BME280;51430;52.242;21.118;2023-08-30T00:05:25;99121.30;;;20.91;100.00
33795;BME280;51430;52.242;21.118;2023-08-30T00:07:55;99129.39;;;20.93;100.00
33795;BME280;51430;52.242;21.118;2023-08-30T00:10:23;99130.67;;;20.94;100.00
33795;BME280;51430;52.242;21.118;2023-08-30T00:12:52;99130.27;;;20.94;100.00
33795;BME280;51430;52.242;21.118;2023-08-30T00:15:19;99127.69;;;20.91;100.00
33795;BME280;51430;52.242;21.118;2023-08-30T00:17:48;99124.30;;;20.90;100.00
33795;BME280;51430;52.242;21.118;2023-08-30T00:20:15;99118.02;;;20.90;100.00
33795;BME280;51430;52.242;21.118;2023-08-30T00:22:44;99117.05;;;20.90;100.00
33795;BME280;51430;52.242;21.118;2023-08-30T00:25:11;99131.50;;;20.88;100.00
33795;BME280;51430;52.242;21.118;2023-08-30T00:27:39;99143.09;;;20.85;100.00
33795;BME280;51430;52.242;21.118;2023-08-30T00:30:09;99158.45;;;20.75;100.00
33795;BME280;51430;52.242;21.118;2023-08-30T00:32:37;99159.57;;;20.70;100.00
33795;BME280;51430;52.242;21.118;2023-08-30T00:35:05;99157.25;;;20.70;100.00
33795;BME280;51430;52.242;21.118;2023-08-30T00:37:33;99164.82;;;20.68;100.00
33795;BME280;51430;52.242;21.118;2023-08-30T00:40:01;99170.36;;;20.72;100.00
33795;BME280;51430;52.242;21.118;2023-08-30T00:42:31;99163.86;;;20.73;100.00
33795;BME280;51430;52.242;21.118;2023-08-30T00:44:59;99165.48;;;20.77;100.00
33795;BME280;51430;52.242;21.118;2023-08-30T00:47:27;99161.77;;;20.74;100.00
33795;BME280;51430;52.242;21.118;2023-08-30T00:49:56;99151.63;;;20.76;100.00
33795;BME280;51430;52.242;21.118;2023-08-30T00:52:24;99151.86;;;20.81;100.00
33795;BME280;51430;52.242;21.118;2023-08-30T00:54:52;99154.98;;;20.85;100.00
33795;BME280;51430;52.242;21.118;2023-08-30T00:57:20;99164.74;;;20.89;100.00
33795;BME280;51430;52.242;21.118;2023-08-30T00:59:50;99168.73;;;20.86;100.00
33795;BME280;51430;52.242;21.118;2023-08-30T01:02:19;99168.02;;;20.85;100.00
33795;BME280;51430;52.242;21.118;2023-08-30T01:04:47;99174.94;;;20.85;100.00
33795;BME280;51430;52.242;21.118;2023-08-30T01:07:15;99184.64;;;20.80;100.00
33795;BME280;51430;52.242;21.118;2023-08-30T01:09:46;99190.83;;;20.79;100.00
33795;BME280;51430;52.242;21.118;2023-08-30T01:12:40;99188.50;;;20.76;100.00
33795;BME280;51430;52.242;21.118;2023-08-30T01:15:19;99195.55;;;20.72;100.00
33795;BME280;51430;52.242;21.118;2023-08-30T01:17:48;99214.88;;;20.72;100.00
33795;BME280;51430;52.242;21.118;2023-08-30T01:20:18;99224.73;;;20.70;100.00
33795;BME280;51430;52.242;21.118;2023-08-30T01:28:39;99230.75;;;20.52;100.00
33795;BME280;51430;52.242;21.118;2023-08-30T01:31:59;99221.25;;;20.57;100.00
33795;BME280;51430;52.242;21.118;2023-08-30T01:34:29;99220.13;;;20.48;100.00
33795;BME280;51430;52.242;21.118;2023-08-30T01:37:02;99221.48;;;20.46;100.00
33795;BME280;51430;52.242;21.118;2023-08-30T01:40:27;99219.71;;;20.39;100.00
33795;BME280;51430;52.242;21.118;2023-08-30T01:42:57;99217.52;;;20.35;100.00
33795;BME280;51430;52.242;21.118;2023-08-30T01:47:11;99217.02;;;20.37;100.00
33795;BME280;51430;52.242;21.118;2023-08-30T01:49:40;99218.48;;;20.24;100.00
33795;BME280;51430;52.242;21.118;2023-08-30T01:52:09;99218.38;;;20.22;100.00
33795;BME280;51430;52.242;21.118;2023-08-30T01:54:40;99216.13;;;20.22;100.00
33795;BME280;51430;52.242;21.118;2023-08-30T01:57:09;99215.27;;;20.22;100.00
33795;BME280;51430;52.242;21.118;2023-08-30T01:59:37;99220.58;;;20.21;100.00
33795;BME280;51430;52.242;21.118;2023-08-30T02:03:30;99216.19;;;20.12;100.00
33795;BME280;51430;52.242;21.118;2023-08-30T02:06:41;99214.58;;;20.04;100.00
33795;BME280;51430;52.242;21.118;2023-08-30T02:09:18;99214.55;;;20.08;100.00
33795;BME280;51430;52.242;21.118;2023-08-30T02:12:10;99210.05;;;20.08;100.00
33795;BME280;51430;52.242;21.118;2023-08-30T02:14:47;99201.71;;;20.03;100.00
33795;BME280;51430;52.242;21.118;2023-08-30T02:17:17;99194.77;;;20.00;100.00
33795;BME280;51430;52.242;21.118;2023-08-30T02:19:46;99189.42;;;20.02;100.00
33795;BME280;51430;52.242;21.118;2023-08-30T02:22:15;99174.23;;;20.02;100.00
33795;BME280;51430;52.242;21.118;2023-08-30T02:24:42;99162.43;;;19.97;100.00
33795;BME280;51430;52.242;21.118;2023-08-30T02:27:10;99156.88;;;19.93;100.00
33795;BME280;51430;52.242;21.118;2023-08-30T02:31:18;99153.63;;;19.84;100.00
33795;BME280;51430;52.242;21.118;2023-08-30T02:33:46;99152.30;;;19.72;100.00
33795;BME280;51430;52.242;21.118;2023-08-30T02:36:13;99151.17;;;19.76;100.00
33795;BME280;51430;52.242;21.118;2023-08-30T02:38:41;99147.29;;;19.82;100.00
33795;BME280;51430;52.242;21.118;2023-08-30T02:41:09;99136.84;;;19.85;100.00
33795;BME280;51430;52.242;21.118;2023-08-30T02:43:38;99125.70;;;19.87;100.00
33795;BME280;51430;52.242;21.118;2023-08-30T02:46:06;99123.13;;;19.83;100.00
33795;BME280;51430;52.242;21.118;2023-08-30T02:48:36;99123.74;;;19.81;100.00
33795;BME280;51430;52.242;21.118;2023-08-30T02:51:04;99123.28;;;19.82;100.00
33795;BME280;51430;52.242;21.118;2023-08-30T02:53:32;99112.91;;;19.87;100.00
33795;BME280;51430;52.242;21.118;2023-08-30T02:56:00;99114.30;;;19.90;100.00
33795;BME280;51430;52.242;21.118;2023-08-30T02:58:28;99107.98;;;19.84;100.00
33795;BME280;51430;52.242;21.118;2023-08-30T03:00:58;99113.37;;;19.85;100.00
33795;BME280;51430;52.242;21.118;2023-08-30T03:03:26;99111.80;;;19.85;100.00
33795;BME280;51430;52.242;21.118;2023-08-30T03:05:54;99106.47;;;19.85;100.00
33795;BME280;51430;52.242;21.118;2023-08-30T03:08:21;99111.37;;;19.84;100.00
33795;BME280;51430;52.242;21.118;2023-08-30T03:10:49;99118.70;;;19.82;100.00
33795;BME280;51430;52.242;21.118;2023-08-30T03:13:17;99109.80;;;19.77;100.00
33795;BME280;51430;52.242;21.118;2023-08-30T03:15:45;99102.27;;;19.73;100.00
33795;BME280;51430;52.242;21.118;2023-08-30T03:18:13;99105.33;;;19.72;100.00
33795;BME280;51430;52.242;21.118;2023-08-30T03:20:41;99104.55;;;19.72;100.00
33795;BME280;51430;52.242;21.118;2023-08-30T03:23:09;99102.83;;;19.70;100.00
33795;BME280;51430;52.242;21.118;2023-08-30T03:25:37;99106.39;;;19.70;100.00
33795;BME280;51430;52.242;21.118;2023-08-30T03:28:05;99103.70;;;19.67;100.00
33795;BME280;51430;52.242;21.118;2023-08-30T03:30:33;99110.25;;;19.66;100.00
33795;BME280;51430;52.242;21.118;2023-08-30T03:33:01;99109.52;;;19.64;100.00
33795;BME280;51430;52.242;21.118;2023-08-30T03:38:19;99101.46;;;19.47;100.00
33795;BME280;51430;52.242;21.118;2023-08-30T03:40:53;99115.16;;;19.36;100.00
33795;BME280;51430;52.242;21.118;2023-08-30T03:43:21;99121.48;;;19.37;100.00
33795;BME280;51430;52.242;21.118;2023-08-30T03:45:49;99126.87;;;19.35;100.00
33795;BME280;51430;52.242;21.118;2023-08-30T03:48:17;99123.96;;;19.33;100.00
33795;BME280;51430;52.242;21.118;2023-08-30T03:50:46;99119.05;;;19.29;100.00
33795;BME280;51430;52.242;21.118;2023-08-30T03:53:14;99125.28;;;19.26;100.00
33795;BME280;51430;52.242;21.118;2023-08-30T03:55:42;99124.38;;;19.26;100.00
33795;BME280;51430;52.242;21.118;2023-08-30T03:58:10;99125.23;;;19.25;100.00
33795;BME280;51430;52.242;21.118;2023-08-30T04:00:38;99124.00;;;19.21;100.00
33795;BME280;51430;52.242;21.118;2023-08-30T04:03:09;99121.06;;;19.19;100.00
33795;BME280;51430;52.242;21.118;2023-08-30T04:05:37;99124.32;;;19.18;100.00
33795;BME280;51430;52.242;21.118;2023-08-30T04:08:06;99121.88;;;19.18;100.00
33795;BME280;51430;52.242;21.118;2023-08-30T04:10:36;99116.20;;;19.20;100.00
33795;BME280;51430;52.242;21.118;2023-08-30T04:13:05;99116.83;;;19.23;100.00
33795;BME280;51430;52.242;21.118;2023-08-30T04:15:35;99119.63;;;19.29;100.00
33795;BME280;51430;52.242;21.118;2023-08-30T04:18:04;99114.98;;;19.36;100.00
33795;BME280;51430;52.242;21.118;2023-08-30T04:20:33;99117.79;;;19.46;100.00
33795;BME280;51430;52.242;21.118;2023-08-30T04:23:02;99118.81;;;19.50;100.00
33795;BME280;51430;52.242;21.118;2023-08-30T04:25:30;99112.38;;;19.54;100.00
33795;BME280;51430;52.242;21.118;2023-08-30T04:27:58;99115.19;;;19.57;100.00
33795;BME280;51430;52.242;21.118;2023-08-30T04:30:26;99120.17;;;19.63;100.00
33795;BME280;51430;52.242;21.118;2023-08-30T04:32:54;99115.94;;;19.70;100.00
33795;BME280;51430;52.242;21.118;2023-08-30T04:35:27;99111.36;;;19.72;100.00
33795;BME280;51430;52.242;21.118;2023-08-30T04:37:55;99111.95;;;19.72;100.00
33795;BME280;51430;52.242;21.118;2023-08-30T04:40:23;99117.00;;;19.75;100.00
33795;BME280;51430;52.242;21.118;2023-08-30T04:48:55;99142.17;;;19.68;100.00
33795;BME280;51430;52.242;21.118;2023-08-30T04:52:45;99146.78;;;19.61;100.00
33795;BME280;51430;52.242;21.118;2023-08-30T04:55:13;99148.48;;;19.53;100.00
33795;BME280;51430;52.242;21.118;2023-08-30T04:57:41;99151.21;;;19.55;100.00
33795;BME280;51430;52.242;21.118;2023-08-30T05:00:29;99155.18;;;19.55;100.00
33795;BME280;51430;52.242;21.118;2023-08-30T05:02:59;99159.44;;;19.61;100.00
33795;BME280;51430;52.242;21.118;2023-08-30T05:05:27;99164.58;;;19.66;100.00
33795;BME280;51430;52.242;21.118;2023-08-30T05:07:55;99167.52;;;19.68;100.00
33795;BME280;51430;52.242;21.118;2023-08-30T05:10:23;99172.50;;;19.67;100.00
33795;BME280;51430;52.242;21.118;2023-08-30T05:12:54;99177.32;;;19.68;100.00
33795;BME280;51430;52.242;21.118;2023-08-30T05:15:22;99187.64;;;19.65;100.00
33795;BME280;51430;52.242;21.118;2023-08-30T05:21:15;99201.90;;;19.54;100.00
33795;BME280;51430;52.242;21.118;2023-08-30T05:23:43;99211.70;;;19.59;100.00
33795;BME280;51430;52.242;21.118;2023-08-30T05:26:44;99211.83;;;19.63;100.00
33795;BME280;51430;52.242;21.118;2023-08-30T05:29:14;99218.76;;;19.58;100.00
33795;BME280;51430;52.242;21.118;2023-08-30T05:32:05;99221.92;;;19.66;100.00
33795;BME280;51430;52.242;21.118;2023-08-30T05:34:38;99227.85;;;19.72;100.00
33795;BME280;51430;52.242;21.118;2023-08-30T05:37:06;99221.77;;;19.74;100.00
33795;BME280;51430;52.242;21.118;2023-08-30T05:39:43;99214.96;;;19.80;100.00
33795;BME280;51430;52.242;21.118;2023-08-30T05:53:57;99219.14;;;20.05;100.00
33795;BME280;51430;52.242;21.118;2023-08-30T05:56:47;99222.08;;;19.93;100.00
33795;BME280;51430;52.242;21.118;2023-08-30T06:00:22;99221.15;;;19.94;100.00
33795;BME280;51430;52.242;21.118;2023-08-30T06:02:51;99227.02;;;19.96;100.00
33795;BME280;51430;52.242;21.118;2023-08-30T06:05:19;99228.88;;;20.08;100.00
33795;BME280;51430;52.242;21.118;2023-08-30T06:19:30;99213.39;;;19.97;100.00
33795;BME280;51430;52.242;21.118;2023-08-30T06:33:30;99220.80;;;20.11;100.00
33795;BME280;51430;52.242;21.118;2023-08-30T06:36:37;99221.73;;;20.03;100.00
33795;BME280;51430;52.242;21.118;2023-08-30T06:39:55;99224.98;;;19.95;100.00
33795;BME280;51430;52.242;21.118;2023-08-30T06:43:42;99226.00;;;19.92;100.00
33795;BME280;51430;52.242;21.118;2023-08-30T06:47:31;99225.38;;;19.91;100.00
33795;BME280;51430;52.242;21.118;2023-08-30T06:50:51;99227.30;;;19.85;100.00
33795;BME280;51430;52.242;21.118;2023-08-30T06:54:34;99230.48;;;19.81;100.00
33795;BME280;51430;52.242;21.118;2023-08-30T06:57:23;99230.64;;;19.76;100.00
33795;BME280;51430;52.242;21.118;2023-08-30T07:01:21;99231.89;;;19.74;100.00
33795;BME280;51430;52.242;21.118;2023-08-30T07:04:29;99232.34;;;19.71;100.00
33795;BME280;51430;52.242;21.118;2023-08-30T07:07:46;99233.92;;;19.86;100.00
33795;BME280;51430;52.242;21.118;2023-08-30T07:10:55;99235.02;;;19.94;100.00
33795;BME280;51430;52.242;21.118;2023-08-30T07:14:23;99238.05;;;19.98;100.00
33795;BME280;51430;52.242;21.118;2023-08-30T07:16:56;99238.02;;;20.02;100.00
33795;BME280;51430;52.242;21.118;2023-08-30T07:19:25;99239.42;;;20.09;100.00
33795;BME280;51430;52.242;21.118;2023-08-30T07:21:55;99241.59;;;20.13;100.00
33795;BME280;51430;52.242;21.118;2023-08-30T07:24:26;99241.73;;;20.16;100.00
33795;BME280;51430;52.242;21.118;2023-08-30T07:26:58;99243.21;;;20.15;100.00
33795;BME280;51430;52.242;21.118;2023-08-30T07:29:53;99238.48;;;20.14;100.00
33795;BME280;51430;52.242;21.118;2023-08-30T07:32:41;99242.36;;;20.10;100.00
33795;BME280;51430;52.242;21.118;2023-08-30T07:35:14;99238.92;;;20.10;100.00
33795;BME280;51430;52.242;21.118;2023-08-30T07:38:49;99232.56;;;20.13;100.00
33795;BME280;51430;52.242;21.118;2023-08-30T07:42:05;99225.36;;;20.04;100.00
33795;BME280;51430;52.242;21.118;2023-08-30T07:44:45;99226.05;;;20.04;100.00
33795;BME280;51430;52.242;21.118;2023-08-30T07:47:51;99226.48;;;20.12;100.00
33795;BME280;51430;52.242;21.118;2023-08-30T07:50:20;99220.91;;;20.22;100.00
33795;BME280;51430;52.242;21.118;2023-08-30T07:52:54;99222.46;;;20.27;100.00
33795;BME280;51430;52.242;21.118;2023-08-30T07:55:22;99222.91;;;20.32;100.00
33795;BME280;51430;52.242;21.118;2023-08-30T07:57:50;99220.78;;;20.32;100.00
33795;BME280;51430;52.242;21.118;2023-08-30T08:00:19;99218.91;;;20.30;100.00
33795;BME280;51430;52.242;21.118;2023-08-30T08:02:47;99218.86;;;20.30;100.00
33795;BME280;51430;52.242;21.118;2023-08-30T08:05:36;99215.52;;;20.26;100.00
33795;BME280;51430;52.242;21.118;2023-08-30T08:08:10;99215.26;;;20.14;100.00
33795;BME280;51430;52.242;21.118;2023-08-30T08:10:44;99219.58;;;20.12;100.00
33795;BME280;51430;52.242;21.118;2023-08-30T08:13:12;99221.29;;;20.10;100.00
33795;BME280;51430;52.242;21.118;2023-08-30T08:15:42;99221.73;;;20.05;100.00
33795;BME280;51430;52.242;21.118;2023-08-30T08:18:11;99225.92;;;19.96;100.00
33795;BME280;51430;52.242;21.118;2023-08-30T08:20:40;99221.06;;;19.89;100.00
33795;BME280;51430;52.242;21.118;2023-08-30T08:23:08;99222.52;;;19.81;100.00
33795;BME280;51430;52.242;21.118;2023-08-30T08:25:37;99217.29;;;19.79;100.00
33795;BME280;51430;52.242;21.118;2023-08-30T08:28:05;99219.36;;;19.71;100.00
33795;BME280;51430;52.242;21.118;2023-08-30T08:30:41;99218.21;;;19.69;100.00
33795;BME280;51430;52.242;21.118;2023-08-30T08:33:10;99217.14;;;19.66;100.00
33795;BME280;51430;52.242;21.118;2023-08-30T08:35:39;99216.85;;;19.65;100.00
33795;BME280;51430;52.242;21.118;2023-08-30T08:38:07;99212.20;;;19.64;100.00
33795;BME280;51430;52.242;21.118;2023-08-30T08:40:39;99206.08;;;19.63;100.00
33795;BME280;51430;52.242;21.118;2023-08-30T08:43:10;99204.78;;;19.64;100.00
33795;BME280;51430;52.242;21.118;2023-08-30T08:45:42;99201.48;;;19.70;100.00
33795;BME280;51430;52.242;21.118;2023-08-30T08:48:11;99200.95;;;19.74;100.00
33795;BME280;51430;52.242;21.118;2023-08-30T08:50:41;99201.04;;;19.72;100.00
33795;BME280;51430;52.242;21.118;2023-08-30T08:53:10;99196.98;;;19.63;100.00
33795;BME280;51430;52.242;21.118;2023-08-30T08:55:39;99194.19;;;19.52;100.00
33795;BME280;51430;52.242;21.118;2023-08-30T08:58:09;99196.92;;;19.42;100.00
33795;BME280;51430;52.242;21.118;2023-08-30T09:00:37;99203.51;;;19.34;100.00
33795;BME280;51430;52.242;21.118;2023-08-30T09:03:08;99203.87;;;19.25;100.00
33795;BME280;51430;52.242;21.118;2023-08-30T09:05:42;99207.44;;;19.21;100.00
33795;BME280;51430;52.242;21.118;2023-08-30T09:08:11;99208.73;;;19.11;100.00
33795;BME280;51430;52.242;21.118;2023-08-30T09:10:41;99210.83;;;19.03;100.00
33795;BME280;51430;52.242;21.118;2023-08-30T09:13:09;99201.05;;;19.06;100.00
33795;BME280;51430;52.242;21.118;2023-08-30T09:15:37;99195.05;;;19.14;100.00
33795;BME280;51430;52.242;21.118;2023-08-30T09:18:15;99198.25;;;19.10;100.00
33795;BME280;51430;52.242;21.118;2023-08-30T09:20:43;99201.67;;;19.08;100.00
33795;BME280;51430;52.242;21.118;2023-08-30T09:23:21;99204.86;;;18.99;100.00
33795;BME280;51430;52.242;21.118;2023-08-30T09:25:54;99206.10;;;18.89;100.00
33795;BME280;51430;52.242;21.118;2023-08-30T09:28:25;99205.08;;;18.81;100.00
33795;BME280;51430;52.242;21.118;2023-08-30T09:31:05;99204.93;;;18.70;100.00
33795;BME280;51430;52.242;21.118;2023-08-30T09:33:51;99206.55;;;18.71;100.00
33795;BME280;51430;52.242;21.118;2023-08-30T09:36:23;99214.58;;;18.73;100.00
33795;BME280;51430;52.242;21.118;2023-08-30T09:38:54;99213.14;;;18.67;100.00
33795;BME280;51430;52.242;21.118;2023-08-30T09:41:26;99201.73;;;18.64;100.00
33795;BME280;51430;52.242;21.118;2023-08-30T09:43:54;99193.73;;;18.70;100.00
33795;BME280;51430;52.242;21.118;2023-08-30T09:46:45;99196.35;;;18.70;100.00
33795;BME280;51430;52.242;21.118;2023-08-30T09:49:19;99201.73;;;18.67;100.00
33795;BME280;51430;52.242;21.118;2023-08-30T09:51:50;99202.16;;;18.55;100.00
33795;BME280;51430;52.242;21.118;2023-08-30T09:54:41;99209.86;;;18.54;100.00
33795;BME280;51430;52.242;21.118;2023-08-30T09:57:12;99209.23;;;18.56;100.00
33795;BME280;51430;52.242;21.118;2023-08-30T09:59:42;99213.09;;;18.63;100.00
33795;BME280;51430;52.242;21.118;2023-08-30T10:02:23;99211.90;;;18.61;100.00
33795;BME280;51430;52.242;21.118;2023-08-30T10:04:51;99214.91;;;18.60;100.00
33795;BME280;51430;52.242;21.118;2023-08-30T10:07:20;99218.86;;;18.53;100.00
33795;BME280;51430;52.242;21.118;2023-08-30T10:09:50;99221.20;;;18.49;100.00
33795;BME280;51430;52.242;21.118;2023-08-30T10:12:36;99220.25;;;18.50;100.00
33795;BME280;51430;52.242;21.118;2023-08-30T10:15:05;99223.16;;;18.50;100.00
33795;BME280;51430;52.242;21.118;2023-08-30T10:17:34;99222.60;;;18.52;100.00
33795;BME280;51430;52.242;21.118;2023-08-30T10:20:06;99218.29;;;18.57;100.00
33795;BME280;51430;52.242;21.118;2023-08-30T10:23:39;99209.88;;;18.57;100.00
33795;BME280;51430;52.242;21.118;2023-08-30T10:27:12;99203.24;;;18.58;100.00
33795;BME280;51430;52.242;21.118;2023-08-30T10:29:48;99199.73;;;18.58;100.00
33795;BME280;51430;52.242;21.118;2023-08-30T10:32:25;99196.73;;;18.66;100.00
33795;BME280;51430;52.242;21.118;2023-08-30T10:35:35;99192.20;;;18.72;100.00
33795;BME280;51430;52.242;21.118;2023-08-30T10:38:39;99192.59;;;18.69;100.00
33795;BME280;51430;52.242;21.118;2023-08-30T10:42:21;99191.37;;;18.71;100.00
33795;BME280;51430;52.242;21.118;2023-08-30T11:39:19;99216.64;;;19.75;100.00
33795;BME280;51430;52.242;21.118;2023-08-30T11:42:07;99212.44;;;19.54;100.00
33795;BME280;51430;52.242;21.118;2023-08-30T11:56:31;99218.92;;;19.47;100.00
33795;BME280;51430;52.242;21.118;2023-08-30T11:59:23;99221.49;;;19.28;100.00
33795;BME280;51430;52.242;21.118;2023-08-30T12:01:54;99221.80;;;19.20;100.00
33795;BME280;51430;52.242;21.118;2023-08-30T12:04:42;99224.30;;;19.30;100.00
33795;BME280;51430;52.242;21.118;2023-08-30T12:07:24;99228.15;;;19.35;100.00
33795;BME280;51430;52.242;21.118;2023-08-30T12:10:04;99231.79;;;19.29;100.00
33795;BME280;51430;52.242;21.118;2023-08-30T13:06:48;99236.66;;;19.70;100.00
33795;BME280;51430;52.242;21.118;2023-08-30T14:22:24;99215.17;;;20.08;100.00
33795;BME280;51430;52.242;21.118;2023-08-30T14:25:27;99215.41;;;20.06;100.00
33795;BME280;51430;52.242;21.118;2023-08-30T14:39:30;99220.86;;;21.16;100.00
33795;BME280;51430;52.242;21.118;2023-08-30T14:41:58;99230.25;;;21.24;100.00
33795;BME280;51430;52.242;21.118;2023-08-30T14:44:29;99234.75;;;21.23;100.00
33795;BME280;51430;52.242;21.118;2023-08-30T14:47:22;99238.67;;;21.23;100.00
33795;BME280;51430;52.242;21.118;2023-08-30T14:49:48;99236.66;;;21.17;100.00
33795;BME280;51430;52.242;21.118;2023-08-30T14:52:17;99240.91;;;20.99;99.74
33795;BME280;51430;52.242;21.118;2023-08-30T14:54:44;99247.38;;;20.79;99.18
33795;BME280;51430;52.242;21.118;2023-08-30T14:57:11;99253.88;;;20.68;99.50
33795;BME280;51430;52.242;21.118;2023-08-30T14:59:38;99253.37;;;20.60;99.92
33795;BME280;51430;52.242;21.118;2023-08-30T15:02:44;99258.25;;;20.50;100.00
33795;BME280;51430;52.242;21.118;2023-08-30T15:05:13;99255.48;;;20.37;100.00
33795;BME280;51430;52.242;21.118;2023-08-30T15:07:48;99259.56;;;20.41;100.00
33795;BME280;51430;52.242;21.118;2023-08-30T15:10:18;99265.61;;;20.41;100.00
33795;BME280;51430;52.242;21.118;2023-08-30T15:12:46;99273.62;;;20.38;100.00
33795;BME280;51430;52.242;21.118;2023-08-30T15:15:17;99276.98;;;20.34;100.00
33795;BME280;51430;52.242;21.118;2023-08-30T15:17:46;99283.88;;;20.29;100.00
33795;BME280;51430;52.242;21.118;2023-08-30T15:20:20;99286.00;;;20.17;100.00
33795;BME280;51430;52.242;21.118;2023-08-30T15:22:51;99286.19;;;19.95;100.00
33795;BME280;51430;52.242;21.118;2023-08-30T15:25:20;99283.57;;;19.94;100.00
33795;BME280;51430;52.242;21.118;2023-08-30T15:27:49;99283.01;;;19.94;100.00
33795;BME280;51430;52.242;21.118;2023-08-30T15:30:21;99289.38;;;19.93;100.00
33795;BME280;51430;52.242;21.118;2023-08-30T15:33:15;99290.88;;;19.88;100.00
33795;BME280;51430;52.242;21.118;2023-08-30T15:36:44;99287.30;;;19.79;100.00
33795;BME280;51430;52.242;21.118;2023-08-30T15:39:33;99281.30;;;19.66;100.00
33795;BME280;51430;52.242;21.118;2023-08-30T15:42:33;99277.52;;;19.69;100.00
33795;BME280;51430;52.242;21.118;2023-08-30T15:45:02;99279.38;;;19.75;100.00
33795;BME280;51430;52.242;21.118;2023-08-30T15:47:59;99283.14;;;19.80;100.00
33795;BME280;51430;52.242;21.118;2023-08-30T15:58:48;99285.94;;;19.62;100.00
33795;BME280;51430;52.242;21.118;2023-08-30T16:02:55;99290.29;;;19.55;100.00
33795;BME280;51430;52.242;21.118;2023-08-30T16:06:24;99286.63;;;19.49;100.00
33795;BME280;51430;52.242;21.118;2023-08-30T16:08:50;99292.48;;;19.45;100.00
33795;BME280;51430;52.242;21.118;2023-08-30T16:11:17;99290.97;;;19.52;100.00
33795;BME280;51430;52.242;21.118;2023-08-30T16:13:46;99292.15;;;19.53;100.00
33795;BME280;51430;52.242;21.118;2023-08-30T16:16:13;99287.83;;;19.54;100.00
33795;BME280;51430;52.242;21.118;2023-08-30T16:18:40;99287.21;;;19.52;100.00
33795;BME280;51430;52.242;21.118;2023-08-30T16:21:07;99289.32;;;19.49;100.00
33795;BME280;51430;52.242;21.118;2023-08-30T16:23:33;99292.36;;;19.45;100.00
33795;BME280;51430;52.242;21.118;2023-08-30T16:26:28;99290.76;;;19.44;100.00
33795;BME280;51430;52.242;21.118;2023-08-30T16:30:19;99285.20;;;19.26;100.00
33795;BME280;51430;52.242;21.118;2023-08-30T16:32:45;99283.10;;;19.16;100.00
33795;BME280;51430;52.242;21.118;2023-08-30T16:35:12;99288.70;;;19.18;100.00
33795;BME280;51430;52.242;21.118;2023-08-30T16:37:39;99288.11;;;19.20;100.00
33795;BME280;51430;52.242;21.118;2023-08-30T16:43:14;99294.27;;;19.13;100.00
33795;BME280;51430;52.242;21.118;2023-08-30T16:45:41;99290.23;;;19.12;100.00
33795;BME280;51430;52.242;21.118;2023-08-30T16:48:08;99289.33;;;19.08;100.00
33795;BME280;51430;52.242;21.118;2023-08-30T16:50:37;99291.67;;;19.09;100.00
33795;BME280;51430;52.242;21.118;2023-08-30T16:53:04;99288.41;;;19.10;100.00
33795;BME280;51430;52.242;21.118;2023-08-30T16:56:21;99294.73;;;19.09;100.00
33795;BME280;51430;52.242;21.118;2023-08-30T16:58:49;99300.45;;;18.92;100.00
33795;BME280;51430;52.242;21.118;2023-08-30T17:01:47;99303.25;;;18.90;100.00
33795;BME280;51430;52.242;21.118;2023-08-30T17:04:24;99305.05;;;18.86;100.00
33795;BME280;51430;52.242;21.118;2023-08-30T17:06:52;99300.53;;;18.84;100.00
33795;BME280;51430;52.242;21.118;2023-08-30T17:11:27;99292.68;;;18.88;100.00
33795;BME280;51430;52.242;21.118;2023-08-30T17:25:41;99273.67;;;18.93;100.00
33795;BME280;51430;52.242;21.118;2023-08-30T17:28:56;99262.55;;;18.80;100.00
33795;BME280;51430;52.242;21.118;2023-08-30T17:32:54;99265.44;;;18.74;100.00
33795;BME280;51430;52.242;21.118;2023-08-30T17:36:14;99257.66;;;18.69;100.00
33795;BME280;51430;52.242;21.118;2023-08-30T17:39:52;99255.78;;;18.68;100.00
33795;BME280;51430;52.242;21.118;2023-08-30T18:31:17;99281.71;;;18.76;100.00
33795;BME280;51430;52.242;21.118;2023-08-30T18:45:15;99270.39;;;18.91;100.00
33795;BME280;51430;52.242;21.118;2023-08-30T19:01:53;99293.95;;;18.82;100.00
33795;BME280;51430;52.242;21.118;2023-08-30T19:05:54;99289.61;;;18.75;100.00
33795;BME280;51430;52.242;21.118;2023-08-30T19:20:01;99300.64;;;18.75;99.84
33795;BME280;51430;52.242;21.118;2023-08-30T19:22:51;99308.45;;;18.65;100.00
33795;BME280;51430;52.242;21.118;2023-08-30T19:26:36;99314.52;;;18.63;100.00
33795;BME280;51430;52.242;21.118;2023-08-30T19:30:11;99320.59;;;18.59;100.00
33795;BME280;51430;52.242;21.118;2023-08-30T19:44:36;99333.92;;;18.78;99.98
33795;BME280;51430;52.242;21.118;2023-08-30T19:57:48;99348.54;;;18.90;100.00
33795;BME280;51430;52.242;21.118;2023-08-30T20:00:40;99354.33;;;18.81;100.00
33795;BME280;51430;52.242;21.118;2023-08-30T20:04:34;99351.23;;;18.76;100.00
33795;BME280;51430;52.242;21.118;2023-08-30T20:08:01;99355.94;;;18.76;100.00
33795;BME280;51430;52.242;21.118;2023-08-30T20:11:37;99357.10;;;18.64;99.88
33795;BME280;51430;52.242;21.118;2023-08-30T20:15:16;99364.52;;;18.62;99.65
33795;BME280;51430;52.242;21.118;2023-08-30T20:18:53;99365.46;;;18.60;98.99
33795;BME280;51430;52.242;21.118;2023-08-30T20:32:56;99365.95;;;18.82;97.07